createdAt,value
2024-03-06T00:01:59.470Z,2.17
2024-03-06T00:04:26.253Z,6.70
2024-03-06T00:06:53.976Z,1.58
2024-03-06T00:09:20.906Z,1.55
2024-03-06T00:11:48.040Z,2.20
2024-03-06T00:14:14.875Z,2.45
2024-03-06T00:16:41.691Z,4.72
2024-03-06T00:19:08.433Z,2.20
2024-03-06T00:21:37.353Z,2.50
2024-03-06T00:24:05.035Z,28.58
2024-03-06T00:26:31.828Z,2.47
2024-03-06T00:28:58.796Z,3.25
2024-03-06T00:31:25.510Z,5.18
2024-03-06T00:33:52.205Z,9.38
2024-03-06T00:36:18.980Z,4.93
2024-03-06T00:38:45.723Z,4.38
2024-03-06T00:41:12.478Z,2.25
2024-03-06T00:43:39.195Z,5.25
2024-03-06T00:46:05.934Z,2.67
2024-03-06T00:48:32.584Z,1.40
2024-03-06T00:50:59.537Z,2.72
2024-03-06T00:53:26.268Z,1.23
2024-03-06T00:55:53.012Z,9.73
2024-03-06T00:58:19.673Z,2.33
2024-03-06T01:00:47.908Z,2.65
2024-03-06T01:03:14.906Z,12.38
2024-03-06T01:05:41.766Z,1.85
2024-03-06T01:08:08.605Z,2.17
2024-03-06T01:10:35.582Z,2.22
2024-03-06T01:13:02.589Z,15.23
2024-03-06T01:15:29.253Z,3.67
2024-03-06T01:17:55.992Z,3.13
2024-03-06T01:20:22.757Z,3.42
2024-03-06T01:22:49.645Z,3.67
2024-03-06T01:25:16.417Z,1.88
2024-03-06T01:27:43.212Z,2.58
2024-03-06T01:30:10.640Z,7.75
2024-03-06T01:32:38.371Z,1.75
2024-03-06T01:35:06.395Z,5.20
2024-03-06T01:37:33.283Z,3.40
2024-03-06T01:40:00.082Z,5.15
2024-03-06T01:42:26.855Z,2.22
2024-03-06T01:44:53.618Z,2.65
2024-03-06T01:47:20.337Z,5.47
2024-03-06T01:49:47.531Z,2.65
2024-03-06T01:52:16.256Z,2.22
2024-03-06T01:54:43.450Z,2.42
2024-03-06T01:57:14.623Z,2.20
2024-03-06T01:59:42.793Z,2.53
2024-03-06T02:02:12.488Z,15.88
2024-03-06T02:04:39.812Z,7.85
2024-03-06T02:07:11.838Z,2.80
2024-03-06T02:09:39.700Z,4.47
2024-03-06T02:12:09.501Z,1.15
2024-03-06T02:14:39.719Z,3.28
2024-03-06T02:17:06.694Z,1.15
2024-03-06T02:19:44.904Z,2.53
2024-03-06T02:22:12.633Z,7.35
2024-03-06T02:24:44.515Z,1.33
2024-03-06T02:27:11.170Z,0.98
2024-03-06T02:29:39.480Z,1.70
2024-03-06T02:32:06.547Z,2.30
2024-03-06T02:34:33.406Z,2.92
2024-03-06T02:37:00.116Z,2.20
2024-03-06T02:39:26.836Z,1.67
2024-03-06T02:41:53.536Z,0.82
2024-03-06T02:44:20.263Z,4.45
2024-03-06T02:46:50.694Z,1.98
2024-03-06T02:49:18.322Z,5.53
2024-03-06T02:51:45.290Z,8.73
2024-03-06T02:54:12.027Z,3.28
2024-03-06T02:56:38.709Z,1.55
2024-03-06T02:59:05.702Z,8.63
2024-03-06T03:01:32.676Z,1.83
2024-03-06T03:03:59.612Z,2.47
2024-03-06T03:06:26.324Z,3.65
2024-03-06T03:08:53.209Z,2.17
2024-03-06T03:11:19.931Z,2.63
2024-03-06T03:13:46.826Z,1.38
2024-03-06T03:16:19.005Z,3.70
2024-03-06T03:18:46.461Z,8.73
2024-03-06T03:21:14.255Z,1.35
2024-03-06T03:23:41.084Z,7.57
2024-03-06T03:26:11.762Z,4.35
2024-03-06T03:28:41.520Z,5.28
2024-03-06T03:31:10.268Z,2.83
2024-03-06T03:33:40.412Z,1.77
2024-03-06T03:36:08.539Z,3.67
2024-03-06T03:38:41.232Z,1.58
2024-03-06T03:41:13.716Z,2.25
2024-03-06T03:43:41.588Z,1.75
2024-03-06T03:46:09.002Z,1.63
2024-03-06T03:48:37.923Z,8.02
2024-03-06T03:51:06.376Z,2.47
2024-03-06T03:53:33.110Z,2.97
2024-03-06T03:56:00.432Z,2.70
2024-03-06T03:58:27.183Z,2.97
2024-03-06T04:00:54.215Z,2.65
2024-03-06T04:03:21.571Z,1.83
2024-03-06T04:05:49.699Z,1.77
2024-03-06T04:08:16.664Z,1.45
2024-03-06T04:10:46.472Z,2.97
2024-03-06T04:13:14.155Z,11.82
2024-03-06T04:15:40.967Z,1.30
2024-03-06T04:18:07.977Z,1.77
2024-03-06T04:20:34.759Z,2.10
2024-03-06T04:23:01.560Z,2.72
2024-03-06T04:25:28.325Z,3.42
2024-03-06T04:27:55.065Z,5.82
2024-03-06T04:30:22.226Z,4.47
2024-03-06T04:32:49.082Z,10.57
2024-03-06T04:35:16.699Z,30.42
2024-03-06T04:37:45.063Z,8.00
2024-03-06T04:40:12.244Z,4.60
2024-03-06T04:42:38.924Z,7.05
2024-03-06T04:45:12.784Z,7.82
2024-03-06T04:47:39.799Z,9.25
2024-03-06T04:50:11.564Z,4.53
2024-03-06T04:52:39.348Z,6.95
2024-03-06T04:55:07.484Z,3.70
2024-03-06T04:57:35.398Z,6.00
2024-03-06T05:00:06.210Z,7.25
2024-03-06T06:00:13.045Z,4.68
2024-03-06T06:02:39.771Z,4.63
2024-03-06T06:05:22.018Z,2.75
2024-03-06T06:07:51.252Z,3.15
2024-03-06T06:10:21.127Z,1.15
2024-03-06T06:12:49.065Z,10.95
2024-03-06T06:15:16.294Z,3.58
2024-03-06T06:17:46.179Z,3.10
2024-03-06T06:20:17.154Z,2.92
2024-03-06T06:22:45.188Z,3.47
2024-03-06T06:25:12.266Z,4.63
2024-03-06T06:27:39.947Z,1.38
2024-03-06T06:30:08.271Z,2.08
2024-03-06T06:32:36.062Z,3.33
2024-03-06T06:35:03.387Z,9.52
2024-03-06T06:37:30.247Z,23.73
2024-03-06T06:39:57.136Z,4.68
2024-03-06T06:42:23.853Z,3.85
2024-03-06T06:44:50.507Z,6.10
2024-03-06T06:47:18.255Z,7.90
2024-03-06T06:49:45.973Z,2.55
2024-03-06T06:52:12.859Z,5.00
2024-03-06T06:54:39.795Z,11.15
2024-03-06T06:57:06.521Z,23.58
2024-03-06T06:59:33.277Z,2.63
2024-03-06T07:02:00.050Z,3.70
2024-03-06T07:04:26.896Z,3.67
2024-03-06T07:06:53.578Z,2.58
2024-03-06T07:09:20.790Z,3.03
2024-03-06T07:11:47.679Z,2.72
2024-03-06T07:14:14.885Z,5.35
2024-03-06T07:16:45.376Z,53.38
2024-03-06T07:19:12.822Z,2.67
2024-03-06T07:21:39.787Z,2.08
2024-03-06T07:24:06.734Z,2.90
2024-03-06T07:26:34.825Z,2.08
2024-03-06T07:29:02.394Z,2.78
2024-03-06T07:31:29.564Z,7.97
2024-03-06T07:33:56.540Z,6.43
2024-03-06T07:36:23.309Z,5.75
2024-03-06T07:38:50.136Z,2.95
2024-03-06T07:41:17.087Z,2.13
2024-03-06T07:43:44.631Z,1.45
2024-03-06T07:46:14.354Z,5.30
2024-03-06T07:48:45.417Z,7.43
2024-03-06T07:51:12.162Z,3.03
2024-03-06T07:53:38.905Z,3.60
2024-03-06T07:56:05.845Z,3.60
2024-03-06T07:58:32.750Z,6.03
2024-03-06T08:01:00.675Z,3.35
2024-03-06T08:03:27.503Z,5.47
2024-03-06T08:05:54.834Z,21.88
2024-03-06T08:08:22.449Z,8.00
2024-03-06T08:10:49.784Z,1.52
2024-03-06T08:13:17.375Z,2.20
2024-03-06T08:15:46.230Z,68.75
2024-03-06T08:18:14.512Z,3.75
2024-03-06T08:20:42.095Z,5.55
2024-03-06T08:23:11.512Z,3.50
2024-03-06T08:25:38.927Z,5.68
2024-03-06T08:28:06.781Z,1.48
2024-03-06T08:30:34.013Z,2.58
2024-03-06T08:33:01.691Z,5.88
2024-03-06T08:35:29.008Z,7.72
2024-03-06T08:37:55.807Z,2.03
2024-03-06T08:40:24.509Z,2.60
2024-03-06T08:42:51.500Z,7.95
2024-03-06T08:45:18.598Z,7.90
2024-03-06T08:47:51.198Z,8.23
2024-03-06T08:50:18.327Z,5.32
2024-03-06T08:52:47.231Z,4.05
2024-03-06T08:55:14.140Z,4.90
2024-03-06T08:57:42.085Z,1.98
2024-03-06T09:00:11.955Z,3.00
2024-03-06T09:02:40.170Z,3.50
2024-03-06T09:05:08.723Z,6.75
2024-03-06T09:07:39.161Z,8.88
2024-03-06T09:10:09.331Z,5.03
2024-03-06T09:12:36.376Z,11.73
2024-03-06T09:15:04.501Z,7.35
2024-03-06T09:17:31.702Z,3.95
2024-03-06T09:20:08.136Z,5.22
2024-03-06T09:22:45.655Z,9.00
2024-03-06T09:25:15.472Z,9.30
2024-03-06T09:27:43.409Z,8.20
2024-03-06T09:30:10.915Z,9.57
2024-03-06T09:32:39.359Z,5.05
2024-03-06T09:35:07.843Z,5.93
2024-03-06T09:37:34.702Z,5.35
2024-03-06T09:40:01.439Z,10.45
2024-03-06T09:42:28.216Z,4.45
2024-03-06T09:44:55.026Z,6.85
2024-03-06T09:47:26.175Z,4.25
2024-03-06T09:49:55.285Z,13.02
2024-03-06T09:52:28.075Z,3.13
2024-03-06T09:54:57.113Z,6.05
2024-03-06T09:57:24.059Z,2.67
2024-03-06T09:59:51.055Z,4.85
2024-03-06T10:02:36.110Z,6.97
2024-03-06T10:05:03.068Z,10.93
2024-03-06T10:07:30.046Z,9.00
2024-03-06T10:09:58.200Z,5.38
2024-03-06T10:12:25.179Z,5.05
2024-03-06T10:14:55.502Z,7.45
2024-03-06T10:17:29.028Z,9.07
2024-03-06T10:19:56.352Z,9.55
2024-03-06T10:22:27.220Z,6.05
2024-03-06T10:24:59.731Z,7.47
2024-03-06T10:27:27.439Z,7.30
2024-03-06T10:30:15.054Z,6.90
2024-03-06T10:32:42.635Z,11.50
2024-03-06T10:35:19.311Z,20.58
2024-03-06T10:37:47.208Z,7.90
2024-03-06T10:40:18.208Z,7.45
2024-03-06T10:42:46.116Z,7.30
2024-03-06T10:45:16.798Z,10.30
2024-03-06T10:47:48.609Z,12.70
2024-03-06T10:50:16.811Z,7.97
2024-03-06T10:52:47.951Z,4.95
2024-03-06T10:55:14.882Z,9.18
2024-03-06T10:57:43.184Z,10.75
2024-03-06T11:00:11.269Z,11.15
2024-03-06T11:02:39.294Z,8.52
2024-03-06T11:05:06.921Z,8.23
2024-03-06T11:07:34.074Z,10.20
2024-03-06T11:10:05.476Z,6.55
2024-03-06T11:12:39.987Z,16.27
2024-03-06T11:15:22.018Z,13.15
2024-03-06T11:17:50.317Z,14.55
2024-03-06T11:20:21.024Z,18.45
2024-03-06T11:23:01.035Z,11.77
2024-03-06T11:25:49.712Z,21.88
2024-03-06T11:28:28.692Z,11.02
2024-03-06T11:30:55.378Z,37.22
2024-03-06T11:33:22.797Z,40.38
2024-03-06T11:36:21.084Z,46.78
2024-03-06T11:39:01.568Z,39.63
2024-03-06T11:41:30.299Z,43.15
2024-03-06T11:44:00.339Z,38.58
2024-03-06T11:46:46.734Z,40.75
2024-03-06T11:49:25.621Z,41.57
2024-03-06T11:51:54.240Z,44.40
2024-03-06T11:54:25.316Z,38.63
2024-03-06T11:56:55.110Z,40.85
2024-03-06T11:59:26.054Z,38.33
2024-03-06T12:01:54.104Z,41.55
2024-03-06T12:04:22.150Z,43.08
2024-03-06T12:06:49.608Z,45.38
2024-03-06T12:09:16.862Z,12.38
2024-03-06T12:11:47.347Z,12.40
2024-03-06T12:14:17.427Z,22.27
2024-03-06T12:17:05.450Z,27.95
2024-03-06T12:19:36.487Z,16.45
2024-03-06T12:22:08.077Z,36.42
2024-03-06T12:24:35.086Z,38.45
2024-03-06T12:27:04.484Z,40.08
2024-03-06T12:29:33.580Z,11.93
2024-03-06T12:32:01.234Z,36.15
2024-03-06T12:34:28.191Z,37.65
2024-03-06T12:36:54.969Z,39.13
2024-03-06T12:39:24.757Z,40.35
2024-03-06T12:41:52.251Z,40.25
2024-03-06T12:44:21.146Z,44.78
2024-03-06T12:46:48.065Z,43.63
2024-03-06T12:49:15.011Z,33.55
2024-03-06T12:51:41.755Z,38.35
2024-03-06T12:54:09.950Z,37.67
2024-03-06T12:56:37.508Z,41.38
2024-03-06T12:59:04.474Z,34.22
2024-03-06T13:01:31.856Z,39.45
2024-03-06T13:04:05.697Z,41.20
2024-03-06T13:06:33.903Z,37.42
2024-03-06T13:09:01.060Z,44.10
2024-03-06T13:11:28.032Z,36.95
2024-03-06T13:13:55.034Z,36.75
2024-03-06T13:16:23.351Z,36.08
2024-03-06T13:18:53.886Z,33.15
2024-03-06T13:21:21.707Z,33.75
2024-03-06T13:23:49.043Z,12.27
2024-03-06T13:26:16.125Z,36.85
2024-03-06T13:28:42.865Z,33.10
2024-03-06T13:31:09.710Z,30.70
2024-03-06T13:33:36.699Z,27.83
2024-03-06T13:36:05.838Z,27.90
2024-03-06T13:38:32.814Z,30.58
2024-03-06T13:40:59.512Z,27.33
2024-03-06T13:43:26.220Z,30.73
2024-03-06T13:45:53.348Z,29.00
2024-03-06T13:48:20.560Z,33.45
2024-03-06T13:50:47.954Z,30.13
2024-03-06T13:53:15.162Z,24.90
2024-03-06T13:55:42.914Z,28.05
2024-03-06T13:58:09.630Z,26.38
2024-03-06T14:00:36.498Z,28.40
2024-03-06T14:03:03.284Z,26.77
2024-03-06T14:05:30.219Z,25.25
2024-03-06T14:07:57.930Z,22.73
2024-03-06T14:10:25.558Z,20.27
2024-03-06T14:12:53.562Z,20.60
2024-03-06T14:15:21.006Z,22.65
2024-03-06T14:17:47.876Z,19.15
2024-03-06T14:20:17.026Z,19.02
2024-03-06T14:22:43.958Z,18.08
2024-03-06T14:25:11.899Z,16.67
2024-03-06T14:27:39.274Z,19.55
2024-03-06T14:30:12.364Z,18.73
2024-03-06T14:32:39.442Z,20.90
2024-03-06T14:35:06.880Z,17.42
2024-03-06T14:37:33.676Z,19.30
2024-03-06T14:40:03.453Z,18.27
2024-03-06T14:42:32.603Z,16.65
2024-03-06T14:45:00.163Z,16.17
2024-03-06T14:47:27.717Z,18.90
2024-03-06T14:49:55.151Z,14.52
2024-03-06T14:52:21.931Z,15.73
2024-03-06T14:54:48.915Z,15.35
2024-03-06T14:57:15.790Z,13.13
2024-03-06T14:59:42.521Z,15.20
2024-03-06T15:02:09.368Z,14.15
2024-03-06T15:04:36.099Z,11.80
2024-03-06T15:07:02.857Z,11.32
2024-03-06T15:09:29.860Z,14.85
2024-03-06T15:11:58.232Z,10.73
2024-03-06T15:14:26.110Z,12.30
2024-03-06T15:16:53.010Z,13.30
2024-03-06T15:19:20.099Z,13.55
2024-03-06T15:21:46.889Z,11.88
2024-03-06T15:24:13.652Z,12.13
2024-03-06T15:26:40.412Z,14.50
2024-03-06T15:29:07.862Z,14.20
2024-03-06T15:31:34.732Z,13.68
2024-03-06T15:34:01.429Z,16.27
2024-03-06T15:36:28.412Z,13.27
2024-03-06T15:38:58.471Z,10.95
2024-03-06T15:41:25.812Z,11.93
2024-03-06T15:43:52.637Z,14.55
2024-03-06T15:46:19.368Z,12.77
2024-03-06T15:48:46.262Z,12.00
2024-03-06T15:51:13.140Z,12.43
2024-03-06T15:53:39.929Z,14.63
2024-03-06T15:56:06.816Z,17.48
2024-03-06T15:58:33.529Z,11.40
2024-03-06T16:01:01.619Z,14.98
2024-03-06T16:03:30.977Z,9.93
2024-03-06T16:06:06.899Z,14.13
2024-03-06T16:08:39.049Z,18.17
2024-03-06T16:11:08.120Z,12.82
2024-03-06T16:13:34.915Z,13.73
2024-03-06T16:16:01.586Z,11.93
2024-03-06T16:18:28.296Z,13.55
2024-03-06T16:20:55.090Z,16.48
2024-03-06T16:23:22.659Z,15.57
2024-03-06T16:25:49.338Z,17.25
2024-03-06T16:28:16.009Z,13.23
2024-03-06T16:30:42.959Z,9.63
2024-03-06T16:33:09.743Z,13.05
2024-03-06T16:35:36.558Z,6.88
2024-03-06T16:38:03.427Z,9.25
2024-03-06T16:40:30.228Z,11.07
2024-03-06T16:42:56.961Z,11.95
2024-03-06T16:45:23.969Z,8.00
2024-03-06T16:47:52.678Z,9.13
2024-03-06T16:50:21.113Z,11.27
2024-03-06T16:52:47.988Z,9.48
2024-03-06T16:55:14.846Z,10.15
2024-03-06T16:57:41.609Z,10.18
2024-03-06T17:00:09.625Z,9.73
2024-03-06T17:02:46.581Z,10.10
2024-03-06T17:07:40.035Z,9.82
2024-03-06T17:10:10.002Z,9.82
2024-03-06T17:12:36.941Z,7.60
2024-03-06T17:15:04.308Z,7.93
2024-03-06T17:17:31.412Z,10.68
2024-03-06T17:19:58.138Z,13.05
2024-03-06T17:22:24.991Z,11.93
2024-03-06T17:24:51.825Z,14.40
2024-03-06T17:27:18.496Z,18.45
2024-03-06T17:29:45.337Z,16.00
2024-03-06T17:32:12.307Z,16.90
2024-03-06T17:34:38.973Z,16.90
2024-03-06T17:37:08.172Z,21.48
2024-03-06T17:39:35.751Z,18.23
2024-03-06T17:42:02.547Z,18.95
2024-03-06T17:44:32.292Z,16.13
2024-03-06T17:47:00.352Z,21.65
2024-03-06T17:49:27.082Z,18.85
2024-03-06T17:51:56.188Z,20.48
2024-03-06T17:54:24.414Z,20.15
2024-03-06T17:56:51.994Z,16.20
2024-03-06T17:59:18.973Z,20.27
2024-03-06T18:01:46.470Z,17.05
2024-03-06T18:04:13.115Z,19.02
2024-03-06T18:06:40.101Z,17.60
2024-03-06T18:09:11.509Z,74.70
2024-03-06T18:11:39.110Z,30.08
2024-03-06T18:14:06.097Z,20.48
2024-03-06T18:16:33.273Z,16.45
2024-03-06T18:18:59.994Z,14.52
2024-03-06T18:21:26.670Z,16.08
2024-03-06T18:23:53.492Z,18.10
2024-03-06T18:26:21.299Z,20.77
2024-03-06T18:28:48.252Z,19.40
2024-03-06T18:31:18.555Z,18.50
2024-03-06T18:33:45.623Z,14.30
2024-03-06T18:36:12.388Z,14.00
2024-03-06T18:38:39.347Z,16.90
2024-03-06T18:41:06.239Z,15.13
2024-03-06T18:43:32.968Z,14.90
2024-03-06T18:45:59.675Z,18.60
2024-03-06T18:48:26.360Z,14.90
2024-03-06T18:50:53.393Z,15.40
2024-03-06T18:53:20.409Z,15.95
2024-03-06T18:55:47.389Z,15.63
2024-03-06T18:58:14.239Z,3.53
2024-03-06T19:00:41.164Z,21.73
2024-03-06T19:03:07.899Z,18.17
2024-03-06T19:05:34.711Z,15.40
2024-03-06T19:08:01.875Z,4.78
2024-03-06T19:10:28.539Z,4.57
2024-03-06T19:12:55.361Z,20.48
2024-03-06T19:15:22.093Z,20.23
2024-03-06T19:17:48.944Z,21.58
2024-03-06T19:20:16.059Z,25.08
2024-03-06T19:22:42.754Z,24.10
2024-03-06T19:25:13.649Z,26.67
2024-03-06T19:27:41.361Z,25.60
2024-03-06T19:30:11.982Z,29.05
2024-03-06T19:32:46.907Z,27.42
2024-03-06T19:35:20.704Z,31.00
2024-03-06T19:37:47.541Z,30.38
2024-03-06T19:40:15.041Z,4.32
2024-03-06T19:42:42.852Z,7.72
2024-03-06T19:45:11.439Z,4.68
2024-03-06T19:47:38.629Z,29.63
2024-03-06T19:50:07.740Z,32.47
2024-03-06T19:52:34.507Z,10.20
2024-03-06T19:55:01.176Z,4.50
2024-03-06T19:57:27.899Z,33.92
2024-03-06T19:59:54.816Z,33.92
2024-03-06T20:02:21.749Z,33.95
2024-03-06T20:04:48.512Z,34.72
2024-03-06T20:07:15.263Z,33.65
2024-03-06T20:09:42.252Z,37.45
2024-03-06T20:12:09.477Z,33.10
2024-03-06T20:14:37.048Z,32.90
2024-03-06T20:17:04.319Z,33.60
2024-03-06T20:19:32.346Z,12.68
2024-03-06T20:21:59.212Z,33.58
2024-03-06T20:24:26.902Z,13.63
2024-03-06T20:26:53.724Z,10.95
2024-03-06T20:29:20.682Z,14.27
2024-03-06T20:31:49.905Z,5.07
2024-03-06T20:34:17.504Z,5.25
2024-03-06T20:36:44.265Z,12.90
2024-03-06T20:39:16.378Z,6.05
2024-03-06T20:41:46.845Z,4.75
2024-03-06T20:44:15.638Z,11.30
2024-03-06T20:46:43.016Z,6.40
2024-03-06T20:49:10.336Z,5.07
2024-03-06T20:51:37.061Z,13.50
2024-03-06T20:54:04.444Z,8.98
2024-03-06T20:56:31.295Z,3.90
2024-03-06T20:58:58.814Z,4.57
2024-03-06T21:01:26.259Z,9.50
2024-03-06T21:03:53.110Z,12.00
2024-03-06T21:06:19.802Z,15.95
2024-03-06T21:08:46.621Z,6.38
2024-03-06T21:11:13.427Z,9.80
2024-03-06T21:13:40.233Z,8.55
2024-03-06T21:16:07.092Z,34.95
2024-03-06T21:18:33.845Z,37.10
2024-03-06T21:21:01.559Z,11.25
2024-03-06T21:23:28.314Z,14.05
2024-03-06T21:25:55.138Z,17.55
2024-03-06T21:28:25.704Z,7.03
2024-03-06T21:30:52.861Z,16.80
2024-03-06T21:33:19.648Z,6.00
2024-03-06T21:35:46.510Z,4.38
2024-03-06T21:38:15.152Z,35.35
2024-03-06T21:40:42.041Z,11.50
2024-03-06T21:43:08.788Z,7.80
2024-03-06T21:45:35.571Z,7.22
2024-03-06T21:48:02.456Z,5.70
2024-03-06T21:50:29.415Z,4.63
2024-03-06T21:52:58.507Z,3.63
2024-03-06T21:55:26.646Z,5.53
2024-03-06T21:57:53.311Z,5.47
2024-03-06T22:00:20.310Z,6.35
2024-03-06T22:02:48.236Z,5.03
2024-03-06T22:05:15.038Z,5.32
2024-03-06T22:07:41.851Z,8.48
2024-03-06T22:10:09.238Z,5.57
2024-03-06T22:12:38.760Z,14.45
2024-03-06T22:15:06.129Z,7.75
2024-03-06T22:17:33.419Z,12.82
2024-03-06T22:20:00.354Z,9.77
2024-03-06T22:22:27.252Z,6.80
2024-03-06T22:24:54.406Z,15.85
2024-03-06T22:27:21.109Z,8.18
2024-03-06T22:29:48.126Z,7.20
2024-03-06T22:32:15.071Z,10.65
2024-03-06T22:34:41.798Z,9.05
2024-03-06T22:37:09.268Z,9.90
2024-03-06T22:39:36.092Z,9.65
2024-03-06T22:42:02.841Z,8.55
2024-03-06T22:44:29.571Z,14.90
2024-03-06T22:46:58.366Z,6.35
2024-03-06T22:49:25.493Z,8.75
2024-03-06T22:51:52.382Z,7.10
2024-03-06T22:54:19.233Z,8.77
2024-03-06T22:56:46.991Z,6.47
2024-03-06T22:59:13.922Z,11.55
2024-03-06T23:01:41.173Z,7.82
2024-03-06T23:04:08.375Z,9.38
2024-03-06T23:06:35.344Z,7.63
2024-03-06T23:09:02.156Z,8.52
2024-03-06T23:11:30.574Z,10.88
2024-03-06T23:13:57.558Z,6.25
2024-03-06T23:16:24.790Z,9.57
2024-03-06T23:18:53.149Z,2.80
2024-03-06T23:21:20.053Z,5.05
2024-03-06T23:23:47.037Z,6.68
2024-03-06T23:26:13.813Z,9.63
2024-03-06T23:28:40.513Z,4.05
2024-03-06T23:31:07.150Z,6.22
2024-03-06T23:33:34.093Z,7.65
2024-03-06T23:36:01.036Z,6.32
2024-03-06T23:38:27.822Z,7.28
2024-03-06T23:40:55.064Z,10.48
2024-03-06T23:43:21.760Z,7.10
2024-03-06T23:45:48.413Z,9.80
2024-03-06T23:48:15.386Z,11.18
2024-03-06T23:50:42.206Z,8.52
2024-03-06T23:53:09.051Z,7.43
2024-03-06T23:55:35.750Z,6.85
2024-03-06T23:58:03.420Z,18.15
